Time;durP1;ratioP1;P1;durP2;ratioP2;P2;SDS_P1;SDS_P2;PMS_P1;PMS_P2;Temp;Humidity;BMP_temperature;BMP_pressure;BME280_temperature;BME280_humidity;BME280_pressure;Samples;Min_cycle;Max_cycle;Signal;HPM_P1;HPM_P2
2022/11/21 00:07:54;;;;;;;17.23;12.15;;;;;;;20.52;53.92;99708.94;20657052;28;20041;-77
2022/11/21 00:17:54;;;;;;;15.52;11.35;;;;;;;20.46;54.13;99694.53;20652496;28;20034;-75
2022/11/21 00:27:54;;;;;;;16.55;11.57;;;;;;;20.45;53.99;99691.06;20649112;28;20042;-76
2022/11/21 00:37:55;;;;;;;14.95;10.57;;;;;;;20.43;53.97;99679.00;20654090;28;20038;-77
2022/11/21 00:47:59;;;;;;;16.75;12.00;;;;;;;20.38;54.08;99666.25;20656296;28;20140;-77
2022/11/21 00:58:00;;;;;;;15.48;10.73;;;;;;;20.33;54.02;99657.09;20648821;28;20049;-77
2022/11/21 01:08:00;;;;;;;16.67;11.55;;;;;;;20.34;53.80;99670.09;20694705;28;20413;-77
2022/11/21 01:18:00;;;;;;;15.20;10.65;;;;;;;20.38;53.83;99654.91;20668455;28;20397;-77
2022/11/21 01:28:01;;;;;;;15.27;9.93;;;;;;;20.37;53.62;99650.59;20658380;28;20042;-78
2022/11/21 01:38:01;;;;;;;13.70;9.90;;;;;;;20.37;53.56;99643.53;20663971;28;20088;-78
2022/11/21 01:48:02;;;;;;;15.20;10.10;;;;;;;20.36;53.62;99627.91;20658621;28;20073;-76
2022/11/21 01:58:02;;;;;;;14.75;9.95;;;;;;;20.33;53.40;99630.81;20654676;28;20479;-77
2022/11/21 02:08:09;;;;;;;13.60;10.02;;;;;;;20.35;53.60;99637.59;20654650;28;20042;-78
2022/11/21 02:18:09;;;;;;;15.35;10.45;;;;;;;20.34;53.19;99630.66;20665083;28;20065;-78
2022/11/21 02:28:13;;;;;;;17.65;10.10;;;;;;;20.34;53.68;99628.03;20666037;28;20125;-78
2022/11/21 02:38:26;;;;;;;12.27;9.23;;;;;;;20.32;53.30;99622.06;20663644;28;20159;-78
2022/11/21 02:48:26;;;;;;;12.63;9.00;;;;;;;20.35;53.29;99621.81;20661957;28;20501;-77
2022/11/21 02:58:26;;;;;;;12.05;8.63;;;;;;;20.34;53.05;99616.72;20662766;28;20046;-77
2022/11/21 03:08:27;;;;;;;11.98;8.18;;;;;;;20.30;53.10;99634.53;20663354;28;20133;-77
2022/11/21 03:18:27;;;;;;;11.88;8.52;;;;;;;20.33;53.21;99621.13;20654996;28;20077;-76
2022/11/21 03:28:28;;;;;;;10.32;8.00;;;;;;;20.33;53.51;99615.03;20669202;28;20071;-77
2022/11/21 03:38:28;;;;;;;12.38;8.40;;;;;;;20.32;53.33;99603.66;20661449;28;20286;-80
2022/11/21 03:48:28;;;;;;;10.23;7.80;;;;;;;20.33;53.58;99594.00;20664333;28;20054;-79
2022/11/21 03:58:29;;;;;;;11.57;7.93;;;;;;;20.29;53.38;99583.75;20658386;28;20038;-79
2022/11/21 04:08:29;;;;;;;9.10;6.93;;;;;;;20.29;53.27;99573.22;20663717;28;20066;-78
2022/11/21 04:18:30;;;;;;;9.43;7.05;;;;;;;20.27;53.02;99577.78;20669104;28;20409;-79
2022/11/21 04:28:30;;;;;;;9.98;7.18;;;;;;;20.27;53.40;99566.44;20663282;28;20046;-79
2022/11/21 04:38:31;;;;;;;8.95;6.55;;;;;;;20.29;53.22;99557.44;20668186;28;20102;-79
2022/11/21 04:48:31;;;;;;;8.27;6.25;;;;;;;20.28;53.35;99547.06;20664408;28;20080;-78
2022/11/21 04:58:32;;;;;;;9.93;7.00;;;;;;;20.24;52.79;99543.06;20666420;28;20077;-77
2022/11/21 05:08:32;;;;;;;10.70;6.50;;;;;;;20.30;53.61;99535.44;20665862;28;20386;-75
2022/11/21 05:18:32;;;;;;;11.40;6.18;;;;;;;20.42;54.20;99546.72;20657870;28;20042;-76
2022/11/21 05:28:34;;;;;;;13.70;6.65;;;;;;;20.50;54.53;99534.69;20660092;28;20452;-81
2022/11/21 05:38:35;;;;;;;12.18;6.68;;;;;;;20.57;54.78;99526.09;20665703;28;20109;-76
2022/11/21 05:48:35;;;;;;;29.92;8.68;;;;;;;20.64;54.10;99515.84;20663100;28;20049;-77
2022/11/21 05:58:36;;;;;;;29.90;8.50;;;;;;;20.68;54.06;99512.00;20666348;28;20685;-81
2022/11/21 06:08:39;;;;;;;37.95;11.55;;;;;;;20.66;52.99;99515.75;20661689;28;20050;-78
2022/11/21 06:18:41;;;;;;;;;;;;;;;20.62;51.38;99523.06;20623419;28;21526;-77
2022/11/21 06:28:43;;;;;;;22.17;9.00;;;;;;;20.71;52.73;99529.31;20656669;28;20271;-78
2022/11/21 06:38:44;;;;;;;23.77;9.43;;;;;;;20.78;52.70;99533.09;20649681;28;20052;-81
2022/11/21 06:48:44;;;;;;;24.17;9.68;;;;;;;20.88;53.82;99548.88;20680774;28;21796;-76
2022/11/21 06:58:45;;;;;;;21.77;9.75;;;;;;;20.82;51.14;99566.03;20682455;28;20046;-77
2022/11/21 07:08:45;;;;;;;23.70;9.70;;;;;;;20.91;52.40;99581.03;20657969;28;20101;-78
2022/11/21 07:18:46;;;;;;;31.05;9.43;;;;;;;20.98;53.09;99565.50;20649641;28;20050;-74
2022/11/21 07:28:46;;;;;;;16.27;8.27;;;;;;;21.03;52.72;99573.84;20631469;28;20050;-76
2022/11/21 07:38:46;;;;;;;16.55;8.43;;;;;;;21.08;52.46;99568.13;20635152;28;20046;-77
2022/11/21 07:48:47;;;;;;;15.25;8.30;;;;;;;21.12;52.79;99572.19;20656335;28;20061;-77
2022/11/21 07:58:51;;;;;;;18.05;8.23;;;;;;;21.17;52.17;99582.31;20672255;28;20053;-76
2022/11/21 08:08:54;;;;;;;15.65;8.68;;;;;;;21.23;52.44;99592.28;20671749;28;20056;-77
2022/11/21 08:18:55;;;;;;;19.15;7.60;;;;;;;21.28;52.31;99601.41;20680856;28;20049;-77
2022/11/21 08:28:55;;;;;;;14.27;7.20;;;;;;;21.30;52.44;99598.66;20694599;28;20047;-72
2022/11/21 08:38:56;;;;;;;12.73;7.35;;;;;;;21.30;52.19;99609.19;20680562;28;20050;-73
2022/11/21 08:48:56;;;;;;;13.10;7.32;;;;;;;21.36;51.92;99620.94;20717104;28;20088;-79
2022/11/21 08:58:57;;;;;;;11.85;7.32;;;;;;;21.35;51.91;99624.53;20667045;28;20066;-80
2022/11/21 09:08:57;;;;;;;11.27;7.40;;;;;;;21.39;51.48;99624.13;20712802;28;20437;-79
2022/11/21 09:18:57;;;;;;;13.50;7.63;;;;;;;21.41;51.51;99608.19;20727677;28;20038;-78
2022/11/21 09:28:58;;;;;;;12.27;7.15;;;;;;;21.41;51.71;99609.03;20715296;28;20061;-78
2022/11/21 09:38:58;;;;;;;12.88;7.82;;;;;;;21.39;51.81;99607.50;20675144;28;20394;-80
2022/11/21 09:49:03;;;;;;;12.50;7.22;;;;;;;21.39;51.56;99613.59;20699764;28;20041;-79
2022/11/21 09:59:26;;;;;;;14.90;9.05;;;;;;;21.38;51.32;99614.56;20698963;28;20072;-78
2022/11/21 10:09:58;;;;;;;14.18;8.13;;;;;;;21.40;51.10;99606.56;20680445;28;20042;-80
2022/11/21 10:20:23;;;;;;;13.90;8.60;;;;;;;21.40;51.29;99610.00;20698408;28;20052;-78
2022/11/21 10:30:23;;;;;;;14.13;7.93;;;;;;;21.42;51.40;99594.06;20681268;28;20497;-84
2022/11/21 10:40:49;;;;;;;13.48;8.98;;;;;;;21.37;50.69;99568.16;20672805;28;20050;-79
2022/11/21 10:50:58;;;;;;;15.23;9.10;;;;;;;21.37;50.61;99572.56;20657965;28;20065;-77
2022/11/21 11:00:59;;;;;;;13.48;9.13;;;;;;;21.40;50.85;99567.03;20670013;28;21669;-78
2022/11/21 11:11:13;;;;;;;14.70;9.43;;;;;;;21.39;50.05;99560.94;20677960;28;20111;-79
2022/11/21 11:21:19;;;;;;;12.70;9.73;;;;;;;21.25;50.53;99553.44;20680029;28;20037;-77
2022/11/21 11:31:22;;;;;;;24.50;12.20;;;;;;;21.43;51.76;99540.41;20655633;28;20045;-75
2022/11/21 11:52:05;;;;;;;;;;;;;;;21.43;51.28;99504.38;20659682;28;20505;-75
2022/11/21 12:02:17;;;;;;;25.40;12.38;;;;;;;21.44;51.21;99502.56;20659265;28;19968;-76
2022/11/21 12:12:38;;;;;;;19.88;11.32;;;;;;;21.42;50.91;99484.28;20664513;28;20045;-77
2022/11/21 12:22:38;;;;;;;17.13;10.82;;;;;;;21.49;51.03;99470.53;20661972;28;20038;-77
2022/11/21 12:32:59;;;;;;;18.90;11.75;;;;;;;21.46;51.15;99461.13;20638399;28;20564;-76
2022/11/21 12:43:45;;;;;;;18.35;10.77;;;;;;;21.50;51.19;99459.03;20656966;28;20642;-76
2022/11/21 13:04:20;;;;;;;16.75;11.48;;;;;;;21.66;51.56;99454.00;20670218;28;20050;-78
2022/11/21 13:14:34;;;;;;;18.60;11.45;;;;;;;21.69;50.97;99452.88;20687364;28;20121;-76
2022/11/21 13:24:43;;;;;;;17.08;11.75;;;;;;;21.71;50.69;99464.13;20671532;28;20078;-78
2022/11/21 13:34:44;;;;;;;16.63;11.05;;;;;;;21.73;50.72;99460.38;20681592;28;20037;-77
2022/11/21 13:44:44;;;;;;;25.67;10.27;;;;;;;21.73;50.83;99451.63;20672465;28;20838;-78
2022/11/21 13:54:44;;;;;;;17.05;10.23;;;;;;;21.74;50.32;99459.38;20669098;28;20038;-84
2022/11/21 14:05:06;;;;;;;17.48;10.23;;;;;;;21.74;50.76;99467.28;20682437;28;20551;-84
2022/11/21 14:15:33;;;;;;;14.63;9.87;;;;;;;21.69;50.39;99460.78;20667703;28;20045;-79
2022/11/21 14:25:41;;;;;;;14.43;9.35;;;;;;;21.69;50.45;99459.00;20660218;28;20448;-77
2022/11/21 14:35:47;;;;;;;16.70;8.90;;;;;;;21.67;50.76;99454.84;20665249;28;20129;-80
2022/11/21 14:45:48;;;;;;;13.30;8.02;;;;;;;21.64;50.72;99473.56;20653908;28;20434;-80
2022/11/21 14:55:51;;;;;;;15.32;7.85;;;;;;;21.56;50.71;99482.16;20654556;28;20038;-80
2022/11/21 15:06:04;;;;;;;11.52;7.82;;;;;;;21.61;50.36;99487.88;20649869;28;20131;-79
2022/11/21 15:16:05;;;;;;;12.13;7.13;;;;;;;21.58;50.88;99496.03;20628475;28;20050;-81
2022/11/21 15:26:32;;;;;;;10.23;7.30;;;;;;;21.50;50.72;99501.19;20664502;28;20050;-80
2022/11/21 15:36:33;;;;;;;12.57;7.10;;;;;;;21.50;50.77;99507.28;20651190;28;20041;-79
2022/11/21 15:46:40;;;;;;;10.88;6.57;;;;;;;21.53;50.69;99519.31;20647867;28;20176;-82
2022/11/21 15:56:41;;;;;;;9.60;6.25;;;;;;;21.48;50.92;99524.19;20646304;28;20129;-83
2022/11/21 16:06:41;;;;;;;9.98;6.35;;;;;;;21.47;51.00;99523.38;20657840;28;20046;-77
2022/11/21 16:16:43;;;;;;;17.25;5.88;;;;;;;21.37;51.18;99507.59;20650278;28;20042;-77
2022/11/21 16:26:43;;;;;;;10.25;5.57;;;;;;;21.38;51.31;99511.03;20662395;28;20513;-78
2022/11/21 16:36:44;;;;;;;10.45;5.55;;;;;;;21.31;51.09;99494.16;20662465;28;20048;-77
2022/11/21 16:46:46;;;;;;;9.90;5.78;;;;;;;21.15;51.10;99497.34;20668480;28;20113;-74
2022/11/21 16:56:47;;;;;;;10.60;5.57;;;;;;;21.21;51.69;99492.34;20654798;28;20081;-80
2022/11/21 17:06:47;;;;;;;12.00;5.40;;;;;;;21.24;52.24;99496.53;20673634;28;20041;-81
2022/11/21 17:16:49;;;;;;;8.43;5.28;;;;;;;21.25;52.03;99509.53;20654401;28;20042;-78
2022/11/21 17:26:50;;;;;;;19.00;5.68;;;;;;;21.25;53.53;99524.50;20654041;28;20046;-84
2022/11/21 17:36:50;;;;;;;9.15;5.75;;;;;;;21.30;53.66;99522.28;20612110;28;20085;-87
2022/11/21 17:46:50;;;;;;;11.32;6.25;;;;;;;21.34;54.12;99528.09;20670323;28;20057;-81
2022/11/21 17:56:51;;;;;;;12.93;6.80;;;;;;;21.36;55.38;99521.72;20667955;28;20037;-81
2022/11/21 18:06:52;;;;;;;18.30;6.78;;;;;;;21.38;55.99;99526.84;20676535;28;20041;-80
2022/11/21 18:16:53;;;;;;;12.40;7.00;;;;;;;21.40;56.57;99515.19;20667162;28;20046;-78
2022/11/21 18:26:53;;;;;;;14.48;7.53;;;;;;;21.45;56.51;99520.03;20658157;28;20084;-79
2022/11/21 18:36:54;;;;;;;14.95;7.30;;;;;;;21.47;58.41;99510.22;20645141;28;20095;-80
2022/11/21 18:46:55;;;;;;;14.68;8.27;;;;;;;21.48;58.60;99511.84;20654822;28;20042;-78
2022/11/21 18:56:56;;;;;;;15.73;8.27;;;;;;;21.45;57.36;99514.78;20650435;28;20437;-78
2022/11/21 19:06:56;;;;;;;13.93;7.75;;;;;;;21.40;57.36;99509.09;20644041;28;20120;-85
2022/11/21 19:16:56;;;;;;;16.58;8.10;;;;;;;21.44;57.29;99507.84;20659669;28;20385;-80
2022/11/21 19:27:03;;;;;;;14.95;7.70;;;;;;;21.42;56.86;99513.25;20682130;28;20053;-83
2022/11/21 19:37:03;;;;;;;12.30;6.97;;;;;;;21.38;56.98;99517.13;20666642;28;20045;-78
2022/11/21 19:47:03;;;;;;;12.85;6.60;;;;;;;21.38;57.13;99519.75;20671168;28;20042;-78
2022/11/21 19:57:04;;;;;;;10.45;6.30;;;;;;;21.33;56.53;99526.44;20679691;28;20053;-77
2022/11/21 20:07:04;;;;;;;20.40;6.50;;;;;;;21.31;56.24;99534.47;20664625;28;20124;-77
2022/11/21 20:17:05;;;;;;;9.95;5.78;;;;;;;21.28;55.28;99540.84;20711593;28;20128;-75
2022/11/21 20:27:05;;;;;;;8.82;5.47;;;;;;;21.20;55.95;99534.63;20692451;28;20132;-80
2022/11/21 20:37:06;;;;;;;7.68;5.32;;;;;;;21.23;55.64;99529.91;20720288;28;20048;-78
2022/11/21 20:47:07;;;;;;;10.20;6.10;;;;;;;21.22;55.38;99535.31;20696284;28;20136;-79
2022/11/21 20:57:08;;;;;;;9.98;5.38;;;;;;;21.15;55.35;99526.31;20685121;28;20287;-77
2022/11/21 21:07:09;;;;;;;8.25;5.28;;;;;;;21.11;54.87;99521.31;20677431;28;20050;-77
2022/11/21 21:17:09;;;;;;;12.77;5.15;;;;;;;21.06;55.07;99504.31;20675936;28;20064;-79
2022/11/21 21:27:10;;;;;;;9.88;5.05;;;;;;;21.04;55.50;99485.16;20694862;28;20417;-79
2022/11/21 21:37:10;;;;;;;8.32;5.25;;;;;;;21.02;55.66;99472.16;20691588;28;20073;-79
2022/11/21 21:47:14;;;;;;;13.75;5.65;;;;;;;20.99;56.09;99461.09;20687593;28;20042;-78
2022/11/21 21:57:15;;;;;;;9.40;5.30;;;;;;;20.98;56.80;99470.75;20697139;28;20037;-78
2022/11/21 22:07:15;;;;;;;12.10;5.03;;;;;;;20.99;56.72;99472.44;20695353;28;20085;-77
2022/11/21 22:17:15;;;;;;;6.63;5.03;;;;;;;20.94;56.85;99478.09;20679379;28;20046;-78
2022/11/21 22:27:16;;;;;;;7.30;4.53;;;;;;;20.91;56.69;99483.66;20676104;28;20155;-77
2022/11/21 22:37:16;;;;;;;7.97;5.22;;;;;;;20.88;57.01;99496.25;20671641;28;20046;-77
2022/11/21 22:47:17;;;;;;;8.70;5.20;;;;;;;20.87;57.17;99499.84;20667559;28;20046;-77
2022/11/21 22:57:18;;;;;;;7.47;4.38;;;;;;;20.81;57.01;99498.59;20673485;28;20069;-77
2022/11/21 23:07:18;;;;;;;8.02;5.30;;;;;;;20.82;57.09;99481.84;20675097;28;20042;-77
2022/11/21 23:17:19;;;;;;;7.05;4.70;;;;;;;20.77;57.21;99479.63;20673830;28;20041;-78
2022/11/21 23:27:19;;;;;;;6.15;4.72;;;;;;;20.79;57.02;99467.16;20663310;28;20046;-84
2022/11/21 23:37:20;;;;;;;6.90;4.50;;;;;;;20.78;57.26;99441.00;20662353;28;20042;-84
2022/11/21 23:47:20;;;;;;;5.30;3.90;;;;;;;20.76;57.17;99454.31;20670546;28;20997;-83
2022/11/21 23:57:20;;;;;;;6.30;4.25;;;;;;;20.72;57.40;99442.38;20673561;28;20046;-82
